createdAt,value
2019-01-06T04:01:02.567Z,0.00
2019-01-06T04:02:02.617Z,0.00
2019-01-06T04:03:02.566Z,0.00
2019-01-06T04:04:02.793Z,0.00
2019-01-06T04:05:02.889Z,0.00
2019-01-06T04:06:02.958Z,0.00
2019-01-06T04:07:03.147Z,0.00
2019-01-06T04:08:03.279Z,0.00
2019-01-06T04:09:03.423Z,0.00
2019-01-06T04:10:03.639Z,0.00
2019-01-06T04:11:03.757Z,0.00
2019-01-06T04:12:03.929Z,0.00
2019-01-06T04:13:04.138Z,0.00
2019-01-06T04:14:04.279Z,0.00
2019-01-06T04:15:04.464Z,0.00
2019-01-06T04:16:04.582Z,0.00
2019-01-06T04:17:04.771Z,0.00
2019-01-06T04:18:04.955Z,0.00
2019-01-06T04:19:05.098Z,0.00
2019-01-06T04:20:05.261Z,0.00
2019-01-06T04:21:05.378Z,0.00
2019-01-06T04:22:05.527Z,0.00
2019-01-06T04:23:05.718Z,0.00
2019-01-06T04:24:05.829Z,0.00
2019-01-06T04:25:06.048Z,0.00
2019-01-06T04:26:06.150Z,0.00
2019-01-06T04:27:06.351Z,0.00
2019-01-06T04:28:06.485Z,0.00
2019-01-06T04:29:06.680Z,0.00
2019-01-06T04:30:06.807Z,0.00
2019-01-06T04:31:07.005Z,0.00
2019-01-06T04:32:07.165Z,0.00
2019-01-06T04:33:07.379Z,0.00
2019-01-06T04:34:07.436Z,0.00
2019-01-06T04:35:07.579Z,0.00
2019-01-06T04:36:07.759Z,0.00
2019-01-06T04:37:07.959Z,0.00
2019-01-06T04:38:08.042Z,0.00
2019-01-06T04:39:08.243Z,0.00
2019-01-06T04:40:08.407Z,0.00
2019-01-06T04:41:08.570Z,0.00
2019-01-06T04:42:08.737Z,0.00
2019-01-06T04:43:08.843Z,0.00
2019-01-06T04:44:09.060Z,0.00
2019-01-06T04:45:09.215Z,0.00
2019-01-06T04:46:09.409Z,0.00
2019-01-06T04:47:09.477Z,0.00
2019-01-06T04:48:09.671Z,0.00
2019-01-06T04:49:09.835Z,0.00
2019-01-06T04:50:10.019Z,0.00
2019-01-06T04:51:10.145Z,0.00
2019-01-06T04:52:10.331Z,0.00
2019-01-06T04:53:10.461Z,0.00
2019-01-06T04:54:10.641Z,0.00
2019-01-06T04:55:10.745Z,0.00
2019-01-06T04:56:10.939Z,0.00
2019-01-06T04:57:11.147Z,0.00
2019-01-06T04:58:11.261Z,0.00
2019-01-06T04:59:11.431Z,0.00
2019-01-06T05:00:11.710Z,0.00
2019-01-06T05:01:11.748Z,0.00
2019-01-06T05:02:11.870Z,0.00
2019-01-06T05:03:12.091Z,0.00
2019-01-06T05:04:12.272Z,0.00
2019-01-06T05:05:12.384Z,0.00
2019-01-06T05:06:12.544Z,0.00
2019-01-06T05:07:12.770Z,0.00
2019-01-06T05:08:12.922Z,0.00
2019-01-06T05:09:13.022Z,0.00
2019-01-06T05:10:13.197Z,0.00
2019-01-06T05:11:13.333Z,0.00
2019-01-06T05:12:13.451Z,0.00
2019-01-06T05:13:13.659Z,0.00
2019-01-06T05:14:13.886Z,0.00
2019-01-06T05:15:14.064Z,0.00
2019-01-06T05:16:14.216Z,0.00
2019-01-06T05:17:14.378Z,0.00
2019-01-06T05:18:14.524Z,0.00
2019-01-06T05:19:14.684Z,0.00
2019-01-06T05:20:14.759Z,0.00
2019-01-06T05:21:15.007Z,0.00
2019-01-06T05:22:15.117Z,0.00
2019-01-06T05:23:15.301Z,0.00
2019-01-06T05:24:15.464Z,0.00
2019-01-06T05:25:15.591Z,0.00
2019-01-06T05:26:15.741Z,0.00
2019-01-06T05:27:15.916Z,0.00
2019-01-06T05:28:16.081Z,0.00
2019-01-06T05:29:16.234Z,0.00
2019-01-06T05:30:16.352Z,0.00
2019-01-06T05:31:16.574Z,0.00
2019-01-06T05:32:16.733Z,0.00
2019-01-06T05:33:16.876Z,0.00
2019-01-06T05:34:17.047Z,0.00
2019-01-06T05:35:17.321Z,0.00
2019-01-06T05:36:17.351Z,0.00
2019-01-06T05:37:17.492Z,0.00
2019-01-06T05:38:17.668Z,0.00
2019-01-06T05:39:17.919Z,0.00
2019-01-06T05:40:18.012Z,0.00
2019-01-06T05:41:18.209Z,0.00
2019-01-06T05:42:18.345Z,0.00
2019-01-06T05:43:18.498Z,0.00
2019-01-06T05:44:18.641Z,0.00
2019-01-06T05:45:18.887Z,0.00
2019-01-06T05:46:19.012Z,0.00
2019-01-06T05:47:19.169Z,0.00
2019-01-06T05:48:19.307Z,0.00
2019-01-06T05:49:19.525Z,0.00
2019-01-06T05:50:19.604Z,0.00
2019-01-06T05:51:19.849Z,0.00
2019-01-06T05:52:19.989Z,0.00
2019-01-06T05:53:20.127Z,0.00
2019-01-06T05:54:20.326Z,0.00
2019-01-06T05:55:20.454Z,0.00
2019-01-06T05:56:20.549Z,0.00
2019-01-06T05:57:20.704Z,0.00
2019-01-06T05:58:20.905Z,0.00
2019-01-06T05:59:21.036Z,0.00
2019-01-06T06:00:21.253Z,0.00
2019-01-06T06:01:23.145Z,0.00
2019-01-06T06:02:21.574Z,0.00
2019-01-06T06:03:21.711Z,0.00
2019-01-06T06:04:21.920Z,0.00
2019-01-06T06:05:22.016Z,0.00
2019-01-06T06:06:22.202Z,0.00
2019-01-06T06:07:22.370Z,0.00
2019-01-06T06:08:22.498Z,0.00
2019-01-06T06:09:22.701Z,0.00
2019-01-06T06:10:22.882Z,0.00
2019-01-06T06:11:22.967Z,0.00
2019-01-06T06:12:23.097Z,0.00
2019-01-06T06:13:23.260Z,0.00
2019-01-06T06:14:23.462Z,0.00
2019-01-06T06:15:23.585Z,0.00
2019-01-06T06:16:23.743Z,0.00
2019-01-06T06:17:23.922Z,0.00
2019-01-06T06:18:24.080Z,0.00
2019-01-06T06:19:24.206Z,0.00
2019-01-06T06:20:24.498Z,0.00
2019-01-06T06:21:24.520Z,0.00
2019-01-06T06:22:24.740Z,0.00
2019-01-06T06:23:24.850Z,0.00
2019-01-06T06:24:25.076Z,0.00
2019-01-06T06:25:25.181Z,0.00
2019-01-06T06:26:25.289Z,0.00
2019-01-06T06:27:25.497Z,0.00
2019-01-06T06:28:25.688Z,0.00
2019-01-06T06:29:25.786Z,0.00
2019-01-06T06:30:25.944Z,0.00
2019-01-06T06:31:26.167Z,0.00
2019-01-06T06:32:26.296Z,0.00
2019-01-06T06:33:26.471Z,0.00
2019-01-06T06:34:26.594Z,0.00
2019-01-06T06:35:26.820Z,0.00
2019-01-06T06:36:26.989Z,0.00
2019-01-06T06:37:27.106Z,0.00
2019-01-06T06:38:27.286Z,0.00
2019-01-06T06:39:27.454Z,0.00
2019-01-06T06:40:27.590Z,0.00
2019-01-06T06:41:27.755Z,0.00
2019-01-06T06:42:27.940Z,0.00
2019-01-06T06:43:28.103Z,0.00
2019-01-06T06:44:28.239Z,0.00
2019-01-06T06:45:28.413Z,0.00
2019-01-06T06:46:28.535Z,0.00
2019-01-06T06:47:28.665Z,0.00
2019-01-06T06:48:28.839Z,0.00
2019-01-06T06:49:29.011Z,0.00
2019-01-06T06:50:29.206Z,0.00
2019-01-06T06:51:29.323Z,4.00
2019-01-06T06:52:29.502Z,4.00
2019-01-06T06:53:29.643Z,0.00
2019-01-06T06:54:29.769Z,0.00
2019-01-06T06:55:29.903Z,4.00
2019-01-06T06:56:30.095Z,0.00
2019-01-06T06:57:30.218Z,4.00
2019-01-06T06:58:30.434Z,4.00
2019-01-06T06:59:30.668Z,8.00
2019-01-06T07:00:30.782Z,4.00
2019-01-06T07:01:30.869Z,4.00
2019-01-06T07:02:31.066Z,12.00
2019-01-06T07:03:31.255Z,8.00
2019-01-06T07:04:31.422Z,12.00
2019-01-06T07:05:31.562Z,16.00
2019-01-06T07:06:31.727Z,16.00
2019-01-06T07:07:31.909Z,16.00
2019-01-06T07:08:32.035Z,16.00
2019-01-06T07:09:32.209Z,24.00
2019-01-06T07:10:32.327Z,20.00
2019-01-06T07:11:32.503Z,24.00
2019-01-06T07:12:32.656Z,24.00
2019-01-06T07:13:32.836Z,32.00
2019-01-06T07:14:33.019Z,32.00
2019-01-06T07:15:33.162Z,40.00
2019-01-06T07:16:33.324Z,44.00
2019-01-06T07:17:33.492Z,48.00
2019-01-06T07:18:33.644Z,52.00
2019-01-06T07:19:33.875Z,60.00
2019-01-06T07:20:33.956Z,68.00
2019-01-06T07:21:34.142Z,64.00
2019-01-06T07:22:34.358Z,72.00
2019-01-06T07:23:34.417Z,76.00
2019-01-06T07:24:34.667Z,84.00
2019-01-06T07:25:34.769Z,92.00
2019-01-06T07:26:34.979Z,100.00
2019-01-06T07:27:35.106Z,104.00
2019-01-06T07:28:35.294Z,108.00
2019-01-06T07:29:36.396Z,120.00
2019-01-06T07:30:35.587Z,132.00
2019-01-06T07:31:35.835Z,148.00
2019-01-06T07:32:35.940Z,140.00
2019-01-06T07:33:36.160Z,144.00
2019-01-06T07:34:36.346Z,152.00
2019-01-06T07:35:36.450Z,156.00
2019-01-06T07:36:36.656Z,176.00
2019-01-06T07:37:36.793Z,176.00
2019-01-06T07:38:37.001Z,184.00
2019-01-06T07:39:37.133Z,192.00
2019-01-06T07:40:37.737Z,192.00
2019-01-06T07:41:37.453Z,196.00
2019-01-06T07:42:37.628Z,216.00
2019-01-06T07:43:37.895Z,240.00
2019-01-06T07:44:38.041Z,244.00
2019-01-06T07:45:38.093Z,252.00
2019-01-06T07:46:38.323Z,280.00
2019-01-06T07:47:38.480Z,324.00
2019-01-06T07:48:38.641Z,344.00
2019-01-06T07:49:38.795Z,364.00
2019-01-06T07:50:39.255Z,424.00
2019-01-06T07:51:39.205Z,436.00
2019-01-06T07:52:39.283Z,416.00
2019-01-06T07:53:39.514Z,456.00
2019-01-06T07:54:39.595Z,444.00
2019-01-06T07:55:39.744Z,444.00
2019-01-06T07:56:39.894Z,480.00
2019-01-06T07:57:40.128Z,520.00
2019-01-06T07:58:40.370Z,528.00
2019-01-06T07:59:40.565Z,536.00
2019-01-06T08:00:40.616Z,528.00
2019-01-06T08:01:40.856Z,492.00
2019-01-06T08:02:41.105Z,516.00
2019-01-06T08:03:41.218Z,544.00
2019-01-06T08:04:41.335Z,508.00
2019-01-06T08:05:41.692Z,504.00
2019-01-06T08:06:41.743Z,492.00
2019-01-06T08:07:42.056Z,552.00
2019-01-06T08:08:42.149Z,620.00
2019-01-06T08:09:42.454Z,672.00
2019-01-06T08:10:42.569Z,612.00
2019-01-06T08:11:42.772Z,620.00
2019-01-06T08:12:42.781Z,636.00
2019-01-06T08:13:42.961Z,692.00
2019-01-06T08:14:43.221Z,756.00
2019-01-06T08:15:43.267Z,784.00
2019-01-06T08:16:43.548Z,784.00
2019-01-06T08:17:43.618Z,764.00
2019-01-06T08:18:43.832Z,720.00
2019-01-06T08:19:44.053Z,692.00
2019-01-06T08:20:44.169Z,732.00
2019-01-06T08:21:44.348Z,736.00
2019-01-06T08:22:44.506Z,744.00
2019-01-06T08:23:44.604Z,752.00
2019-01-06T08:24:44.769Z,736.00
2019-01-06T08:25:44.888Z,752.00
2019-01-06T08:26:45.157Z,784.00
2019-01-06T08:27:45.238Z,784.00
2019-01-06T08:28:45.438Z,744.00
2019-01-06T08:29:45.615Z,740.00
2019-01-06T08:30:45.754Z,792.00
2019-01-06T08:31:46.545Z,772.00
2019-01-06T08:32:46.510Z,824.00
2019-01-06T08:33:46.352Z,816.00
2019-01-06T08:34:46.622Z,800.00
2019-01-06T08:35:46.682Z,880.00
2019-01-06T08:36:46.941Z,976.00
2019-01-06T08:37:46.959Z,948.00
2019-01-06T08:38:47.142Z,888.00
2019-01-06T08:39:47.306Z,896.00
2019-01-06T08:40:47.482Z,952.00
2019-01-06T08:41:47.597Z,1008.00
2019-01-06T08:42:47.787Z,1080.00
2019-01-06T08:43:47.981Z,1144.00
2019-01-06T08:44:48.222Z,1124.00
2019-01-06T08:45:48.374Z,1036.00
2019-01-06T08:46:48.463Z,1052.00
2019-01-06T08:47:48.694Z,1128.00
2019-01-06T08:48:48.932Z,1116.00
2019-01-06T08:49:48.986Z,1084.00
2019-01-06T08:50:49.143Z,1092.00
2019-01-06T08:51:49.317Z,1036.00
2019-01-06T08:52:49.503Z,984.00
2019-01-06T08:53:49.626Z,1016.00
2019-01-06T08:54:49.801Z,1024.00
2019-01-06T08:55:49.980Z,1040.00
2019-01-06T08:56:50.077Z,1068.00
2019-01-06T08:57:50.375Z,1068.00
2019-01-06T08:58:50.417Z,1072.00
2019-01-06T08:59:50.611Z,1088.00
2019-01-06T09:00:50.809Z,1184.00
2019-01-06T09:01:50.985Z,1248.00
2019-01-06T09:02:51.115Z,1244.00
2019-01-06T09:03:51.340Z,1200.00
2019-01-06T09:04:51.457Z,1196.00
2019-01-06T09:05:51.641Z,1192.00
2019-01-06T09:06:51.763Z,1228.00
2019-01-06T09:07:51.977Z,1272.00
2019-01-06T09:08:52.087Z,1228.00
2019-01-06T09:09:52.272Z,1208.00
2019-01-06T09:10:52.434Z,1192.00
2019-01-06T09:11:52.555Z,1172.00
2019-01-06T09:12:52.657Z,1164.00
2019-01-06T09:13:52.921Z,1084.00
2019-01-06T09:14:53.089Z,1088.00
2019-01-06T09:15:53.229Z,1160.00
2019-01-06T09:16:53.374Z,1184.00
2019-01-06T09:17:53.613Z,1236.00
2019-01-06T09:18:53.712Z,1316.00
2019-01-06T09:19:53.960Z,1348.00
2019-01-06T09:20:54.092Z,1408.00
2019-01-06T09:21:54.213Z,1544.00
2019-01-06T09:22:54.477Z,1760.00
2019-01-06T09:23:54.617Z,2020.00
2019-01-06T09:24:54.745Z,2012.00
2019-01-06T09:25:54.868Z,1824.00
2019-01-06T09:26:55.024Z,1692.00
2019-01-06T09:27:55.226Z,1724.00
2019-01-06T09:28:55.469Z,1668.00
2019-01-06T09:29:55.584Z,1712.00
2019-01-06T09:30:55.766Z,1984.00
2019-01-06T09:32:02.332Z,1956.00
2019-01-06T09:32:56.081Z,1972.00
2019-01-06T09:33:56.466Z,1836.00
2019-01-06T09:34:56.567Z,1812.00
2019-01-06T09:35:56.586Z,1764.00
2019-01-06T09:36:56.773Z,1676.00
2019-01-06T09:37:56.940Z,1480.00
2019-01-06T09:38:57.108Z,1388.00
2019-01-06T09:39:57.228Z,1540.00
2019-01-06T09:40:57.346Z,1772.00
2019-01-06T09:41:57.489Z,1804.00
2019-01-06T09:42:57.787Z,1984.00
2019-01-06T09:43:57.805Z,2096.00
2019-01-06T09:44:57.985Z,2100.00
2019-01-06T09:45:58.128Z,2260.00
2019-01-06T09:46:58.354Z,2364.00
2019-01-06T09:47:58.482Z,2520.00
2019-01-06T09:48:58.603Z,2620.00
2019-01-06T09:49:58.771Z,2584.00
2019-01-06T09:50:59.009Z,2580.00
2019-01-06T09:51:59.157Z,2704.00
2019-01-06T09:52:59.367Z,2852.00
2019-01-06T09:53:59.498Z,2876.00
2019-01-06T09:54:59.602Z,2896.00
2019-01-06T09:55:59.809Z,3012.00
2019-01-06T09:57:00.028Z,3020.00
2019-01-06T09:58:00.141Z,3024.00
2019-01-06T09:59:00.258Z,2964.00
2019-01-06T10:00:00.489Z,2836.00
2019-01-06T10:01:00.620Z,3148.00
2019-01-06T10:02:00.833Z,3228.00
2019-01-06T10:03:00.992Z,2744.00
2019-01-06T10:04:01.120Z,2424.00
2019-01-06T10:05:01.283Z,2588.00
2019-01-06T10:06:01.473Z,3132.00
2019-01-06T10:07:01.670Z,3516.00
2019-01-06T10:08:01.923Z,3336.00
2019-01-06T10:09:01.991Z,3184.00
2019-01-06T10:10:02.141Z,2980.00
2019-01-06T10:11:02.412Z,3100.00
2019-01-06T10:12:02.646Z,2964.00
2019-01-06T10:13:02.806Z,2608.00
2019-01-06T10:14:02.879Z,2732.00
2019-01-06T10:15:03.076Z,2828.00
2019-01-06T10:16:03.091Z,2672.00
2019-01-06T10:17:03.307Z,2564.00
2019-01-06T10:18:03.449Z,2480.00
2019-01-06T10:19:03.700Z,2544.00
2019-01-06T10:20:03.736Z,2656.00
2019-01-06T10:21:04.044Z,2912.00
2019-01-06T10:22:04.195Z,3136.00
2019-01-06T10:23:04.296Z,2812.00
2019-01-06T10:24:04.416Z,2768.00
2019-01-06T10:25:04.641Z,2704.00
2019-01-06T10:26:04.653Z,2976.00
2019-01-06T10:27:04.850Z,3024.00
2019-01-06T10:28:05.109Z,2900.00
2019-01-06T10:29:05.240Z,2432.00
2019-01-06T10:30:05.341Z,2244.00
2019-01-06T10:31:05.532Z,2440.00
2019-01-06T10:32:05.759Z,2200.00
2019-01-06T10:33:05.778Z,2000.00
2019-01-06T10:34:06.023Z,1844.00
2019-01-06T10:35:06.225Z,1760.00
2019-01-06T10:36:06.312Z,1788.00
2019-01-06T10:37:06.464Z,1856.00
2019-01-06T10:38:06.653Z,2032.00
2019-01-06T10:39:06.780Z,2376.00
2019-01-06T10:40:07.048Z,2632.00
2019-01-06T10:41:07.365Z,2752.00
2019-01-06T10:42:07.403Z,3040.00
2019-01-06T10:43:07.582Z,3224.00
2019-01-06T10:44:07.740Z,3064.00
2019-01-06T10:45:07.925Z,3080.00
2019-01-06T10:46:08.064Z,2964.00
2019-01-06T10:47:08.264Z,2800.00
2019-01-06T10:48:08.435Z,2844.00
2019-01-06T10:49:08.547Z,2804.00
2019-01-06T10:50:08.670Z,2876.00
2019-01-06T10:51:09.762Z,2984.00
2019-01-06T10:52:08.971Z,2984.00
2019-01-06T10:53:09.251Z,2836.00
2019-01-06T10:54:09.416Z,2828.00
2019-01-06T10:55:09.555Z,2888.00
2019-01-06T10:56:09.727Z,2992.00
2019-01-06T10:57:11.847Z,2932.00
2019-01-06T10:58:10.072Z,2800.00
2019-01-06T10:59:10.191Z,2680.00
2019-01-06T11:00:10.394Z,2640.00
2019-01-06T11:01:10.521Z,2728.00
2019-01-06T11:02:10.748Z,2864.00
2019-01-06T11:03:10.879Z,2968.00
2019-01-06T11:04:11.024Z,3092.00
2019-01-06T11:05:11.137Z,3180.00
2019-01-06T11:06:11.429Z,3280.00
2019-01-06T11:07:11.468Z,3176.00
2019-01-06T11:08:11.647Z,2984.00
2019-01-06T11:09:11.869Z,3168.00
2019-01-06T11:10:11.976Z,3380.00
2019-01-06T11:11:12.121Z,3344.00
2019-01-06T11:12:12.365Z,3484.00
2019-01-06T11:13:12.587Z,3628.00
2019-01-06T11:14:12.760Z,3672.00
2019-01-06T11:15:12.897Z,3624.00
2019-01-06T11:16:12.992Z,3472.00
2019-01-06T11:17:13.230Z,3452.00
2019-01-06T11:18:13.391Z,3616.00
2019-01-06T11:19:13.506Z,3760.00
2019-01-06T11:20:13.718Z,4148.00
2019-01-06T11:21:13.831Z,4736.00
2019-01-06T11:22:13.987Z,5000.00
2019-01-06T11:23:14.187Z,4968.00
2019-01-06T11:24:14.299Z,5028.00
2019-01-06T11:25:14.480Z,5048.00
2019-01-06T11:26:14.698Z,4928.00
2019-01-06T11:27:14.812Z,4648.00
2019-01-06T11:28:15.021Z,4560.00
2019-01-06T11:29:15.209Z,4720.00
2019-01-06T11:30:15.379Z,4972.00
2019-01-06T11:31:15.513Z,6448.00
2019-01-06T11:32:15.700Z,7416.00
2019-01-06T11:33:15.789Z,7980.00
2019-01-06T11:34:16.003Z,7972.00
2019-01-06T11:35:16.169Z,7420.00
2019-01-06T11:36:16.256Z,7312.00
2019-01-06T11:37:16.485Z,7072.00
2019-01-06T11:38:16.886Z,6476.00
2019-01-06T11:39:16.936Z,6328.00
2019-01-06T11:40:16.990Z,6248.00
2019-01-06T11:41:17.363Z,6740.00
2019-01-06T11:42:17.485Z,6664.00
2019-01-06T11:43:17.677Z,6544.00
2019-01-06T11:44:17.909Z,6320.00
2019-01-06T11:45:18.019Z,6052.00
2019-01-06T11:46:18.217Z,5708.00
2019-01-06T11:47:18.379Z,5160.00
2019-01-06T11:48:18.564Z,4524.00
2019-01-06T11:49:18.692Z,4264.00
2019-01-06T11:50:19.031Z,4152.00
2019-01-06T11:51:19.071Z,3972.00
2019-01-06T11:52:19.508Z,3900.00
2019-01-06T11:53:19.445Z,3924.00
2019-01-06T11:54:19.508Z,3848.00
2019-01-06T11:55:19.828Z,3620.00
2019-01-06T11:56:19.766Z,3256.00
2019-01-06T11:57:19.969Z,3220.00
2019-01-06T11:58:20.135Z,3584.00
2019-01-06T11:59:20.208Z,3804.00
2019-01-06T12:00:20.399Z,4192.00
2019-01-06T12:01:20.514Z,4376.00
2019-01-06T12:02:20.746Z,4448.00
2019-01-06T12:03:20.948Z,4252.00
2019-01-06T12:04:21.067Z,4060.00
2019-01-06T12:05:21.309Z,3900.00
2019-01-06T12:06:21.353Z,3568.00
2019-01-06T12:07:21.457Z,3556.00
2019-01-06T12:08:21.721Z,3616.00
2019-01-06T12:09:21.879Z,3528.00
2019-01-06T12:10:22.020Z,3596.00
2019-01-06T12:11:22.481Z,3456.00
2019-01-06T12:12:22.333Z,3192.00
2019-01-06T12:13:22.677Z,2996.00
2019-01-06T12:14:22.651Z,3220.00
2019-01-06T12:15:22.829Z,3428.00
2019-01-06T12:16:22.963Z,3636.00
2019-01-06T12:17:23.144Z,3824.00
2019-01-06T12:18:23.458Z,3868.00
2019-01-06T12:19:23.495Z,3820.00
2019-01-06T12:20:23.762Z,3788.00
2019-01-06T12:21:23.743Z,3476.00
2019-01-06T12:22:23.864Z,3368.00
2019-01-06T12:23:24.123Z,3600.00
2019-01-06T12:24:24.642Z,3900.00
2019-01-06T12:25:24.375Z,4124.00
2019-01-06T12:26:24.584Z,4396.00
2019-01-06T12:27:24.755Z,4180.00
2019-01-06T12:28:24.847Z,3608.00
2019-01-06T12:29:25.034Z,3108.00
2019-01-06T12:30:25.180Z,2764.00
2019-01-06T12:31:25.354Z,2596.00
2019-01-06T12:32:25.452Z,2544.00
2019-01-06T12:33:25.687Z,2536.00
2019-01-06T12:34:25.862Z,2520.00
2019-01-06T12:35:25.972Z,2468.00
2019-01-06T12:36:26.200Z,2300.00
2019-01-06T12:37:26.377Z,2160.00
2019-01-06T12:38:26.467Z,2220.00
2019-01-06T12:39:26.649Z,2272.00
2019-01-06T12:40:26.800Z,2188.00
2019-01-06T12:41:26.991Z,2064.00
2019-01-06T12:42:27.069Z,2048.00
2019-01-06T12:43:27.339Z,2140.00
2019-01-06T12:44:27.500Z,2336.00
2019-01-06T12:45:27.541Z,2552.00
2019-01-06T12:46:27.754Z,2552.00
2019-01-06T12:47:27.853Z,2336.00
2019-01-06T12:48:28.027Z,2152.00
2019-01-06T12:49:28.196Z,2220.00
2019-01-06T12:50:28.416Z,2408.00
2019-01-06T12:51:28.543Z,2272.00
2019-01-06T12:52:28.646Z,2272.00
2019-01-06T12:53:28.847Z,2428.00
2019-01-06T12:54:29.001Z,2436.00
2019-01-06T12:55:29.223Z,2476.00
2019-01-06T12:56:29.287Z,2488.00
2019-01-06T12:57:29.480Z,2468.00
2019-01-06T12:58:29.635Z,2604.00
2019-01-06T12:59:29.798Z,2684.00
2019-01-06T13:00:29.932Z,2492.00
2019-01-06T13:01:30.150Z,2468.00
2019-01-06T13:02:30.314Z,2344.00
2019-01-06T13:03:30.459Z,2160.00
2019-01-06T13:04:30.626Z,1956.00
2019-01-06T13:05:30.756Z,1724.00
2019-01-06T13:06:30.925Z,1720.00
2019-01-06T13:07:31.169Z,1704.00
2019-01-06T13:08:31.298Z,1780.00
2019-01-06T13:09:31.405Z,1840.00
2019-01-06T13:10:31.598Z,1692.00
2019-01-06T13:11:31.822Z,1620.00
2019-01-06T13:12:31.952Z,1692.00
2019-01-06T13:13:36.797Z,1732.00
2019-01-06T13:14:32.309Z,1776.00
2019-01-06T13:15:32.426Z,1924.00
2019-01-06T13:16:32.600Z,2096.00
2019-01-06T13:17:32.763Z,2300.00
2019-01-06T13:18:32.979Z,2424.00
2019-01-06T13:19:33.057Z,2516.00
2019-01-06T13:20:33.280Z,2540.00
2019-01-06T13:21:33.411Z,2188.00
2019-01-06T13:22:33.517Z,1872.00
2019-01-06T13:23:33.720Z,1764.00
2019-01-06T13:24:33.897Z,1556.00
2019-01-06T13:25:34.078Z,1456.00
2019-01-06T13:26:34.197Z,1576.00
2019-01-06T13:27:34.390Z,1680.00
2019-01-06T13:28:34.559Z,1668.00
2019-01-06T13:29:34.665Z,1572.00
2019-01-06T13:30:34.909Z,1524.00
2019-01-06T13:31:34.976Z,1532.00
2019-01-06T13:32:35.226Z,1556.00
2019-01-06T13:33:35.367Z,1504.00
2019-01-06T13:34:35.541Z,1436.00
2019-01-06T13:35:35.699Z,1424.00
2019-01-06T13:36:36.460Z,1432.00
2019-01-06T13:37:36.103Z,1388.00
2019-01-06T13:38:36.214Z,1332.00
2019-01-06T13:39:36.406Z,1292.00
2019-01-06T13:40:36.471Z,1324.00
2019-01-06T13:41:36.695Z,1420.00
2019-01-06T13:42:36.836Z,1448.00
2019-01-06T13:43:36.966Z,1392.00
2019-01-06T13:44:37.160Z,1340.00
2019-01-06T13:45:37.304Z,1316.00
2019-01-06T13:46:37.447Z,1272.00
2019-01-06T13:47:37.588Z,1156.00
2019-01-06T13:48:37.710Z,1144.00
2019-01-06T13:49:37.846Z,1124.00
2019-01-06T13:50:38.108Z,1084.00
2019-01-06T13:52:38.351Z,980.00
2019-01-06T13:53:38.484Z,1048.00
2019-01-06T13:54:38.628Z,1008.00
2019-01-06T13:55:38.805Z,908.00
2019-01-06T13:56:38.897Z,836.00
2019-01-06T13:57:39.153Z,748.00
2019-01-06T13:58:39.368Z,728.00
2019-01-06T13:59:39.518Z,796.00
2019-01-06T14:00:39.670Z,864.00
2019-01-06T14:01:39.855Z,868.00
2019-01-06T14:02:39.976Z,1048.00
2019-01-06T14:03:40.225Z,1100.00
2019-01-06T14:04:41.678Z,1088.00
2019-01-06T14:05:40.520Z,1104.00
2019-01-06T14:06:40.708Z,1120.00
2019-01-06T14:07:40.844Z,1168.00
2019-01-06T14:08:41.011Z,1192.00
2019-01-06T14:09:41.166Z,1136.00
2019-01-06T14:10:41.345Z,964.00
2019-01-06T14:11:42.368Z,872.00
2019-01-06T14:12:41.570Z,864.00
2019-01-06T14:13:41.796Z,896.00
2019-01-06T14:14:41.884Z,1064.00
2019-01-06T14:15:42.021Z,1376.00
2019-01-06T14:16:42.292Z,1532.00
2019-01-06T14:17:42.432Z,1528.00
2019-01-06T14:18:42.580Z,1428.00
2019-01-06T14:19:42.736Z,1452.00
2019-01-06T14:20:42.913Z,1424.00
2019-01-06T14:21:43.080Z,1248.00
2019-01-06T14:22:43.268Z,1252.00
2019-01-06T14:23:43.355Z,1340.00
2019-01-06T14:24:43.595Z,1436.00
2019-01-06T14:25:43.710Z,1492.00
2019-01-06T14:26:43.924Z,1536.00
2019-01-06T14:27:44.126Z,1480.00
2019-01-06T14:28:44.161Z,1416.00
2019-01-06T14:29:44.390Z,1320.00
2019-01-06T14:30:44.580Z,1416.00
2019-01-06T14:31:44.697Z,1492.00
2019-01-06T14:32:44.806Z,1316.00
2019-01-06T14:33:44.982Z,1140.00
2019-01-06T14:34:45.184Z,1176.00
2019-01-06T14:35:45.273Z,1224.00
2019-01-06T14:36:45.432Z,1176.00
2019-01-06T14:37:45.607Z,1112.00
2019-01-06T14:38:45.757Z,1204.00
2019-01-06T14:39:45.924Z,1408.00
2019-01-06T14:40:46.149Z,1292.00
2019-01-06T14:41:46.247Z,1060.00
2019-01-06T14:42:46.427Z,920.00
2019-01-06T14:43:46.513Z,772.00
2019-01-06T14:44:46.731Z,640.00
2019-01-06T14:45:46.942Z,616.00
2019-01-06T14:46:47.027Z,636.00
2019-01-06T14:47:47.175Z,600.00
2019-01-06T14:48:47.450Z,560.00
2019-01-06T14:49:47.543Z,568.00
2019-01-06T14:50:47.753Z,536.00
2019-01-06T14:51:47.878Z,536.00
2019-01-06T14:52:48.028Z,508.00
2019-01-06T14:53:48.209Z,496.00
2019-01-06T14:54:48.344Z,492.00
2019-01-06T14:55:48.458Z,524.00
2019-01-06T14:56:48.671Z,576.00
2019-01-06T14:57:48.845Z,572.00
2019-01-06T14:58:49.022Z,540.00
2019-01-06T14:59:49.101Z,496.00
2019-01-06T15:00:49.337Z,444.00
2019-01-06T15:01:49.479Z,384.00
2019-01-06T15:02:49.623Z,340.00
2019-01-06T15:03:49.764Z,300.00
2019-01-06T15:04:49.907Z,264.00
2019-01-06T15:05:50.064Z,224.00
2019-01-06T15:06:50.255Z,192.00
2019-01-06T15:07:50.375Z,172.00
2019-01-06T15:08:50.558Z,164.00
2019-01-06T15:09:50.742Z,152.00
2019-01-06T15:10:50.918Z,184.00
2019-01-06T15:11:51.121Z,220.00
2019-01-06T15:12:51.262Z,220.00
2019-01-06T15:13:51.475Z,200.00
2019-01-06T15:14:51.559Z,176.00
2019-01-06T15:15:51.797Z,144.00
2019-01-06T15:16:51.874Z,128.00
2019-01-06T15:17:52.094Z,124.00
2019-01-06T15:18:52.211Z,116.00
2019-01-06T15:19:52.472Z,116.00
2019-01-06T15:20:52.588Z,116.00
2019-01-06T15:21:52.718Z,116.00
2019-01-06T15:22:52.894Z,112.00
2019-01-06T15:23:53.072Z,104.00
2019-01-06T15:24:53.199Z,104.00
2019-01-06T15:25:53.365Z,96.00
2019-01-06T15:26:53.548Z,92.00
2019-01-06T15:27:53.726Z,84.00
2019-01-06T15:28:53.862Z,92.00
2019-01-06T15:29:54.005Z,96.00
2019-01-06T15:30:54.208Z,72.00
2019-01-06T15:31:54.358Z,56.00
2019-01-06T15:32:54.496Z,48.00
2019-01-06T15:33:54.643Z,44.00
2019-01-06T15:34:54.818Z,40.00
2019-01-06T15:35:54.933Z,36.00
2019-01-06T15:36:55.166Z,32.00
2019-01-06T15:37:55.360Z,28.00
2019-01-06T15:38:55.430Z,24.00
2019-01-06T15:39:55.662Z,20.00
2019-01-06T15:40:55.756Z,16.00
2019-01-06T15:41:55.977Z,16.00
2019-01-06T15:42:56.080Z,16.00
2019-01-06T15:43:56.250Z,12.00
2019-01-06T15:44:56.453Z,12.00
2019-01-06T15:45:56.641Z,8.00
2019-01-06T15:46:56.789Z,8.00
2019-01-06T15:47:57.011Z,12.00
2019-01-06T15:48:57.157Z,8.00
2019-01-06T15:49:57.297Z,8.00
2019-01-06T15:50:57.444Z,4.00
2019-01-06T15:51:57.621Z,4.00
2019-01-06T15:52:57.782Z,8.00
2019-01-06T15:53:57.894Z,0.00
2019-01-06T15:54:58.081Z,4.00
2019-01-06T15:55:58.269Z,4.00
2019-01-06T15:56:58.475Z,0.00
2019-01-06T15:57:58.651Z,4.00
2019-01-06T15:58:58.751Z,4.00
2019-01-06T15:59:58.892Z,0.00
2019-01-06T16:00:59.083Z,0.00
2019-01-06T16:01:59.253Z,0.00
2019-01-06T16:02:59.396Z,0.00
2019-01-06T16:03:59.561Z,0.00
2019-01-06T16:04:59.744Z,0.00
2019-01-06T16:05:59.841Z,0.00
2019-01-06T16:07:00.057Z,0.00
2019-01-06T16:08:00.297Z,0.00
2019-01-06T16:09:00.417Z,0.00
2019-01-06T16:10:00.508Z,0.00
2019-01-06T16:11:00.713Z,0.00
2019-01-06T16:12:00.843Z,0.00
2019-01-06T16:13:01.004Z,0.00
2019-01-06T16:14:01.116Z,0.00
2019-01-06T16:15:01.335Z,0.00
2019-01-06T16:16:01.490Z,0.00
2019-01-06T16:17:01.707Z,0.00
2019-01-06T16:18:01.790Z,0.00
2019-01-06T16:19:01.910Z,0.00
2019-01-06T16:20:02.105Z,0.00
2019-01-06T16:21:02.310Z,0.00
2019-01-06T16:22:02.486Z,0.00
2019-01-06T16:23:02.585Z,0.00
2019-01-06T16:24:02.708Z,0.00
2019-01-06T16:25:02.889Z,0.00
2019-01-06T16:26:03.027Z,0.00
2019-01-06T16:27:03.247Z,0.00
2019-01-06T16:28:03.386Z,0.00
2019-01-06T16:29:03.531Z,0.00
2019-01-06T16:30:03.691Z,0.00
2019-01-06T16:31:03.832Z,0.00
2019-01-06T16:32:03.962Z,0.00
2019-01-06T16:33:04.157Z,0.00
2019-01-06T16:34:04.266Z,0.00
2019-01-06T16:35:04.522Z,0.00
2019-01-06T16:36:04.643Z,0.00
2019-01-06T16:37:04.856Z,0.00